Portada
METAR-TAF:

METAR-TAF

Aeroports :

Skövde, Suècia

latitud: 58-27N, longitud: 013-58E, altitud: 98 m

Observació

L'informe es va fer fa 45 minuts, a les 17:20 UTC
Vent 10 kt del Est
Temperatura 18°C
Humitat 37%
Pressió 1006 hPa
Visibilitat 10 km o més
sense núvols per sota de 1500 mi sense presència de cumulonimbus.

METAR: ESGR 031720Z 09010KT CAVOK 18/03 Q1006

Hora: 20:05 (18:05 UTC)


TAF: manca

Observacions i pronòstics meteorològics de més de 4000 aeroports (METAR i TAF).

Les estacions disponibles són els punts grocs i vermells al mapa.

Posi el ratolí al punt desitjat per veure el nom de l'estació.

Feu clic per veure les observacions i els pronòstics meteorològics.

Per canviar el mapa: feu clic els botons verds amb una creu de color negre per apropar; al botó verd amb un guió per allunyar la imatge; o en les fletxes verdes per a mapes adjacents.


METAR-TAF: